Lassellsville, New York
Current Conditions -  °F | °C
As of 4:15 AM on Thursday 27 Nov 2014 (Local Time) from KNY0 Reporting Station
Overcast Overcast  
Wind Chill: 21°   Ceiling: 4700
Heat Index: 27°   Visibility: 7mi
Dew Point: 25°   Wind: 5mph
Humidity: 95%   Direction: 260°W
Pressure: 29.91"   Gusts: NA
Location:  43.035°N, 74.6217°W
Report Text: KNY0 270915Z AUTO 26004KT 7SM OVC047 M03/M04 A2991 RMK AO2 T10301037
Loading
Personal Weather Stations






























Interactive Weather Map New forecast layout! Learn more

10-Day Weather Forecast

Advertisements
Track Severe Weather on mobile